Weather at Nice-Côte d'Azur Airport

Public forecast

Using degrees Celsius for public forecast. Weather courtesy of forecast.io.

Current aviation weather report (METAR) for Nice-Côte d'Azur Airport

2024/05/30 13:30 (retrieved 25 minutes ago)

LFMN 301330Z 13009KT 9999 FEW020 BKN260 23/18 Q1005 NOSIG

Aviation forecast (TAF) for Nice-Côte d'Azur Airport

2024/05/30 09:21 (retrieved 5 hours ago)

TAF LFMN 300800Z 3009/3115 VRB03KT 9999 FEW020 TEMPO 3014/3019 09010KT PROB30 TEMPO 3023/3106 BKN014 TEMPO 3102/3106 34010KT PROB30 TEMPO 3106/3109 FEW030TCU BECMG 3109/3111 09012KT